createdAt,value
2023-03-04T00:00:22.589Z,92.70
2023-03-04T00:01:22.586Z,92.91
2023-03-04T00:02:22.626Z,92.81
2023-03-04T00:03:22.638Z,92.81
2023-03-04T00:04:22.545Z,93.12
2023-03-04T00:05:22.534Z,93.02
2023-03-04T00:06:22.515Z,93.02
2023-03-04T00:07:22.509Z,92.91
2023-03-04T00:08:22.500Z,93.02
2023-03-04T00:09:22.528Z,93.02
2023-03-04T00:10:22.466Z,92.70
2023-03-04T00:11:22.454Z,92.81
2023-03-04T00:12:22.439Z,92.91
2023-03-04T00:13:22.432Z,92.91
2023-03-04T00:14:22.417Z,92.91
2023-03-04T00:15:22.402Z,93.02
2023-03-04T00:16:22.428Z,92.91
2023-03-04T00:17:22.382Z,92.91
2023-03-04T00:18:22.364Z,93.12
2023-03-04T00:19:22.354Z,92.81
2023-03-04T00:20:22.344Z,92.66
2023-03-04T00:21:22.328Z,92.77
2023-03-04T00:22:22.314Z,92.55
2023-03-04T00:23:22.304Z,92.66
2023-03-04T00:24:22.288Z,92.41
2023-03-04T00:25:22.305Z,92.10
2023-03-04T00:26:22.263Z,92.20
2023-03-04T00:27:22.258Z,91.89
2023-03-04T00:28:22.246Z,91.68
2023-03-04T00:29:22.229Z,91.68
2023-03-04T00:30:22.215Z,91.79
2023-03-04T00:31:22.228Z,91.68
2023-03-04T00:32:22.234Z,91.57
2023-03-04T00:33:22.183Z,91.47
2023-03-04T00:34:22.167Z,91.26
2023-03-04T00:35:22.212Z,91.05
2023-03-04T00:36:22.151Z,91.36
2023-03-04T00:37:22.131Z,91.36
2023-03-04T00:38:22.112Z,91.47
2023-03-04T00:39:22.099Z,91.36
2023-03-04T00:40:22.091Z,91.79
2023-03-04T00:41:22.097Z,91.57
2023-03-04T00:42:22.061Z,91.32
2023-03-04T00:43:22.048Z,91.32
2023-03-04T00:44:22.034Z,91.22
2023-03-04T00:45:22.024Z,91.22
2023-03-04T00:46:22.048Z,90.91
2023-03-04T00:47:21.997Z,90.80
2023-03-04T00:48:21.988Z,90.86
2023-03-04T00:49:21.972Z,90.76
2023-03-04T00:50:21.963Z,90.66
2023-03-04T00:51:21.945Z,90.55
2023-03-04T00:52:21.951Z,90.35
2023-03-04T00:53:21.921Z,90.24
2023-03-04T00:54:21.913Z,90.14
2023-03-04T00:55:21.906Z,90.35
2023-03-04T00:56:21.880Z,90.55
2023-03-04T00:57:21.893Z,90.45
2023-03-04T00:58:21.856Z,90.24
2023-03-04T00:59:21.845Z,90.76
2023-03-04T01:00:21.830Z,90.41
2023-03-04T01:01:21.919Z,90.03
2023-03-04T01:02:21.853Z,90.20
2023-03-04T01:03:21.793Z,90.10
2023-03-04T01:04:21.777Z,89.99
2023-03-04T01:05:21.765Z,89.36
2023-03-04T01:06:21.753Z,89.57
2023-03-04T01:07:21.742Z,89.78
2023-03-04T01:08:21.729Z,89.67
2023-03-04T01:09:21.726Z,89.57
2023-03-04T01:10:21.700Z,89.78
2023-03-04T01:11:21.688Z,89.78
2023-03-04T01:12:21.677Z,89.57
2023-03-04T01:13:21.705Z,89.78
2023-03-04T01:14:21.669Z,89.89
2023-03-04T01:15:21.643Z,89.99
2023-03-04T01:16:21.642Z,90.10
2023-03-04T01:17:21.633Z,90.20
2023-03-04T01:18:21.597Z,89.89
2023-03-04T01:19:21.602Z,89.99
2023-03-04T01:20:21.572Z,90.20
2023-03-04T01:21:21.564Z,90.05
2023-03-04T01:22:21.549Z,89.74
2023-03-04T01:23:21.535Z,89.53
2023-03-04T01:24:21.521Z,89.78
2023-03-04T01:25:21.508Z,89.67
2023-03-04T01:26:21.498Z,89.57
2023-03-04T01:27:21.483Z,89.99
2023-03-04T01:28:21.468Z,89.89
2023-03-04T01:29:21.485Z,89.67
2023-03-04T01:30:21.455Z,89.78
2023-03-04T01:31:21.437Z,89.64
2023-03-04T01:32:21.480Z,89.64
2023-03-04T01:33:21.408Z,89.22
2023-03-04T01:34:21.392Z,89.22
2023-03-04T01:35:21.427Z,89.01
2023-03-04T01:36:21.367Z,89.22
2023-03-04T01:37:21.372Z,89.43
2023-03-04T01:38:21.345Z,89.32
2023-03-04T01:39:21.329Z,88.80
2023-03-04T01:40:21.319Z,89.22
2023-03-04T01:41:21.304Z,89.32
2023-03-04T01:42:21.293Z,89.22
2023-03-04T01:43:21.278Z,89.01
2023-03-04T01:44:21.271Z,88.80
2023-03-04T01:45:21.278Z,89.43
2023-03-04T01:46:21.308Z,89.22
2023-03-04T01:47:21.228Z,88.90
2023-03-04T01:48:21.223Z,89.01
2023-03-04T01:49:21.203Z,89.11
2023-03-04T01:50:21.189Z,88.90
2023-03-04T01:51:21.179Z,89.22
2023-03-04T01:52:21.182Z,88.90
2023-03-04T01:53:21.188Z,88.90
2023-03-04T01:54:21.137Z,89.32
2023-03-04T01:55:21.137Z,89.36
2023-03-04T01:56:21.115Z,89.74
2023-03-04T01:57:21.101Z,89.84
2023-03-04T01:58:21.088Z,89.74
2023-03-04T01:59:21.077Z,89.59
2023-03-04T02:00:21.058Z,89.28
2023-03-04T02:01:21.141Z,88.65
2023-03-04T02:02:21.036Z,88.59
2023-03-04T02:03:21.027Z,88.86
2023-03-04T02:04:21.096Z,88.70
2023-03-04T02:05:21.007Z,88.80
2023-03-04T02:06:20.984Z,88.90
2023-03-04T02:07:20.978Z,88.90
2023-03-04T02:08:20.968Z,89.22
2023-03-04T02:09:20.950Z,89.08
2023-03-04T02:10:20.936Z,88.55
2023-03-04T02:11:20.931Z,88.24
2023-03-04T02:12:20.907Z,88.24
2023-03-04T02:13:20.898Z,87.93
2023-03-04T02:14:20.890Z,88.24
2023-03-04T02:15:20.882Z,88.39
2023-03-04T02:16:20.927Z,88.80
2023-03-04T02:17:20.869Z,88.90
2023-03-04T02:18:20.832Z,88.90
2023-03-04T02:19:20.845Z,88.90
2023-03-04T02:20:20.842Z,89.01
2023-03-04T02:21:20.795Z,89.18
2023-03-04T02:23:20.768Z,88.76
2023-03-04T02:24:20.754Z,88.76
2023-03-04T02:25:20.742Z,88.65
2023-03-04T02:26:20.743Z,87.93
2023-03-04T02:27:22.131Z,88.24
2023-03-04T02:28:20.705Z,87.82
2023-03-04T02:29:20.700Z,88.14
2023-03-04T02:30:20.678Z,87.93
2023-03-04T02:31:20.704Z,88.14
2023-03-04T02:32:20.691Z,87.72
2023-03-04T02:33:20.664Z,88.03
2023-03-04T02:34:20.638Z,88.03
2023-03-04T02:35:20.665Z,88.28
2023-03-04T02:36:20.600Z,88.86
2023-03-04T02:37:20.589Z,88.86
2023-03-04T02:38:20.576Z,88.76
2023-03-04T02:39:20.566Z,88.45
2023-03-04T02:40:20.549Z,88.45
2023-03-04T02:41:20.539Z,88.97
2023-03-04T02:42:20.527Z,88.55
2023-03-04T02:43:20.512Z,88.55
2023-03-04T02:44:20.497Z,88.34
2023-03-04T02:45:20.490Z,88.24
2023-03-04T02:46:20.498Z,88.70
2023-03-04T02:47:20.466Z,89.22
2023-03-04T02:48:20.445Z,89.32
2023-03-04T02:49:20.460Z,89.49
2023-03-04T02:50:20.422Z,89.59
2023-03-04T02:51:20.411Z,89.34
2023-03-04T02:52:20.399Z,89.09
2023-03-04T02:53:20.385Z,88.37
2023-03-04T02:54:20.376Z,87.70
2023-03-04T02:55:20.358Z,86.60
2023-03-04T02:56:20.348Z,86.60
2023-03-04T02:57:20.353Z,86.49
2023-03-04T02:58:20.326Z,86.74
2023-03-04T02:59:20.308Z,87.16
2023-03-04T03:00:20.299Z,87.57
2023-03-04T03:01:20.281Z,87.47
2023-03-04T03:02:20.277Z,87.26
2023-03-04T03:03:20.259Z,87.57
2023-03-04T03:04:20.243Z,87.99
2023-03-04T03:05:20.257Z,87.78
2023-03-04T03:06:20.222Z,87.78
2023-03-04T03:07:20.206Z,87.78
2023-03-04T03:08:20.194Z,88.09
2023-03-04T03:09:20.188Z,87.99
2023-03-04T03:10:20.168Z,88.31
2023-03-04T03:11:20.152Z,88.41
2023-03-04T03:12:20.145Z,88.31
2023-03-04T03:13:20.128Z,88.09
2023-03-04T03:14:20.114Z,87.89
2023-03-04T03:15:20.109Z,87.89
2023-03-04T03:16:20.190Z,87.95
2023-03-04T03:17:20.074Z,87.95
2023-03-04T03:18:20.065Z,87.22
2023-03-04T03:19:20.050Z,87.22
2023-03-04T03:20:20.034Z,87.64
2023-03-04T03:21:20.046Z,87.43
2023-03-04T03:22:20.010Z,87.53
2023-03-04T03:23:20.002Z,87.75
2023-03-04T03:24:19.986Z,87.53
2023-03-04T03:25:19.987Z,87.75
2023-03-04T03:26:19.957Z,87.43
2023-03-04T03:27:19.944Z,87.75
2023-03-04T03:28:19.935Z,87.64
2023-03-04T03:29:19.923Z,87.53
2023-03-04T03:30:19.909Z,86.98
2023-03-04T03:31:19.923Z,87.18
2023-03-04T03:32:19.942Z,87.18
2023-03-04T03:33:19.873Z,86.56
2023-03-04T03:34:19.854Z,86.66
2023-03-04T03:35:19.885Z,86.77
2023-03-04T03:36:19.853Z,86.98
2023-03-04T03:37:19.840Z,86.56
2023-03-04T03:38:19.805Z,86.66
2023-03-04T03:39:19.793Z,86.66
2023-03-04T03:40:19.781Z,86.66
2023-03-04T03:41:19.790Z,86.62
2023-03-04T03:42:19.752Z,86.00
2023-03-04T03:43:19.738Z,85.62
2023-03-04T03:44:19.733Z,86.00
2023-03-04T03:45:19.713Z,85.79
2023-03-04T03:46:19.700Z,85.90
2023-03-04T03:47:19.688Z,85.69
2023-03-04T03:48:19.674Z,85.90
2023-03-04T03:49:19.660Z,85.48
2023-03-04T03:50:19.652Z,85.72
2023-03-04T03:51:19.647Z,86.00
2023-03-04T03:52:19.632Z,85.69
2023-03-04T03:53:19.633Z,85.48
2023-03-04T03:54:19.605Z,85.16
2023-03-04T03:55:19.593Z,85.27
2023-03-04T03:56:19.591Z,85.79
2023-03-04T03:57:19.561Z,85.69
2023-03-04T03:58:19.549Z,85.69
2023-03-04T03:59:19.540Z,85.58
2023-03-04T04:00:19.538Z,85.44
2023-03-04T04:01:19.517Z,84.92
2023-03-04T04:02:19.687Z,84.71
2023-03-04T04:03:19.486Z,84.85
2023-03-04T04:04:19.478Z,85.23
2023-03-04T04:05:19.464Z,85.02
2023-03-04T04:06:19.472Z,84.92
2023-03-04T04:07:19.444Z,85.02
2023-03-04T04:08:19.434Z,84.71
2023-03-04T04:09:19.439Z,84.54
2023-03-04T04:10:19.410Z,85.16
2023-03-04T04:11:19.395Z,85.27
2023-03-04T04:12:19.376Z,85.27
2023-03-04T04:13:19.365Z,85.23
2023-03-04T04:14:19.366Z,85.23
2023-03-04T04:15:19.343Z,84.99
2023-03-04T04:16:19.374Z,84.88
2023-03-04T04:17:19.316Z,84.47
2023-03-04T04:18:19.305Z,83.74
2023-03-04T04:19:19.294Z,83.84
2023-03-04T04:20:19.280Z,83.67
2023-03-04T04:21:19.269Z,84.50
2023-03-04T04:22:19.254Z,84.71
2023-03-04T04:23:19.240Z,84.61
2023-03-04T04:24:19.229Z,84.61
2023-03-04T04:25:19.243Z,84.82
2023-03-04T04:26:19.203Z,84.61
2023-03-04T04:27:19.189Z,84.61
2023-03-04T04:28:19.180Z,84.40
2023-03-04T04:29:19.161Z,84.26
2023-03-04T04:30:19.151Z,84.15
2023-03-04T04:31:19.137Z,84.05
2023-03-04T04:32:19.184Z,84.05
2023-03-04T04:33:19.111Z,84.15
2023-03-04T04:34:19.098Z,83.94
2023-03-04T04:35:19.128Z,83.84
2023-03-04T04:36:19.074Z,84.26
2023-03-04T04:37:19.065Z,84.01
2023-03-04T04:38:19.051Z,83.39
2023-03-04T04:39:19.035Z,83.01
2023-03-04T04:40:19.023Z,83.22
2023-03-04T04:41:19.037Z,83.32
2023-03-04T04:42:19.006Z,83.32
2023-03-04T04:43:19.010Z,83.53
2023-03-04T04:44:18.981Z,83.70
2023-03-04T04:45:18.960Z,83.28
2023-03-04T04:46:18.990Z,82.76
2023-03-04T04:47:18.934Z,83.28
2023-03-04T04:48:18.928Z,83.49
2023-03-04T04:49:18.914Z,83.25
2023-03-04T04:50:18.898Z,82.73
2023-03-04T04:51:18.888Z,82.73
2023-03-04T04:52:18.872Z,82.00
2023-03-04T04:53:18.884Z,82.31
2023-03-04T04:54:18.850Z,82.21
2023-03-04T04:55:18.847Z,82.52
2023-03-04T04:56:18.823Z,82.11
2023-03-04T04:57:18.838Z,81.59
2023-03-04T04:58:18.798Z,81.90
2023-03-04T04:59:18.784Z,82.42
2023-03-04T05:00:18.774Z,82.62
2023-03-04T05:01:18.811Z,82.31
2023-03-04T05:02:18.752Z,81.79
2023-03-04T05:03:19.305Z,81.69
2023-03-04T05:04:18.727Z,81.48
2023-03-04T05:05:18.714Z,81.62
2023-03-04T05:06:18.702Z,81.83
2023-03-04T05:07:18.690Z,82.45
2023-03-04T05:08:18.679Z,82.52
2023-03-04T05:09:18.664Z,82.42
2023-03-04T05:10:18.654Z,82.11
2023-03-04T05:11:18.638Z,81.69
2023-03-04T05:12:18.626Z,81.28
2023-03-04T05:13:18.650Z,81.59
2023-03-04T05:14:18.619Z,81.69
2023-03-04T05:15:18.587Z,81.59
2023-03-04T05:16:18.592Z,82.04
2023-03-04T05:17:18.564Z,82.31
2023-03-04T05:18:18.552Z,82.25
2023-03-04T05:19:18.540Z,82.35
2023-03-04T05:20:18.528Z,82.66
2023-03-04T05:21:18.527Z,82.70
2023-03-04T05:22:18.503Z,83.32
2023-03-04T05:23:18.489Z,83.22
2023-03-04T05:24:18.500Z,83.42
2023-03-04T05:25:18.465Z,83.39
2023-03-04T05:26:18.459Z,83.18
2023-03-04T05:27:18.438Z,82.83
2023-03-04T05:28:18.438Z,82.52
2023-03-04T05:29:18.437Z,82.42
2023-03-04T05:30:18.403Z,82.31
2023-03-04T05:31:18.447Z,81.69
2023-03-04T05:32:18.411Z,81.73
2023-03-04T05:33:18.374Z,82.25
2023-03-04T05:34:18.355Z,82.35
2023-03-04T05:35:18.404Z,82.42
2023-03-04T05:36:18.330Z,82.21
2023-03-04T05:37:18.366Z,81.79
2023-03-04T05:38:18.313Z,81.52
2023-03-04T05:39:18.287Z,81.62
2023-03-04T05:40:18.279Z,81.79
2023-03-04T05:41:18.264Z,81.79
2023-03-04T05:42:18.252Z,81.59
2023-03-04T05:43:18.240Z,81.24
2023-03-04T05:44:18.239Z,81.14
2023-03-04T05:45:18.262Z,80.82
2023-03-04T05:46:19.127Z,80.41
2023-03-04T05:47:18.204Z,80.72
2023-03-04T05:48:18.177Z,80.62
2023-03-04T05:49:18.165Z,80.76
2023-03-04T05:50:18.156Z,80.96
2023-03-04T05:51:18.143Z,81.62
2023-03-04T05:52:18.142Z,82.35
2023-03-04T05:53:18.117Z,81.93
2023-03-04T05:54:18.106Z,82.00
2023-03-04T05:55:18.092Z,82.21
2023-03-04T05:56:18.082Z,81.90
2023-03-04T05:57:18.064Z,81.69
2023-03-04T05:58:18.175Z,81.90
2023-03-04T05:59:18.039Z,81.69
2023-03-04T06:00:18.025Z,81.17
2023-03-04T06:01:18.037Z,81.59
2023-03-04T06:02:18.064Z,82.00
2023-03-04T06:03:17.987Z,81.69
2023-03-04T06:04:17.976Z,81.69
2023-03-04T06:05:17.980Z,81.59
2023-03-04T06:06:17.970Z,81.69
2023-03-04T06:07:17.939Z,81.97
2023-03-04T06:08:17.926Z,82.07
2023-03-04T06:09:17.909Z,81.14
2023-03-04T06:10:17.920Z,81.03
2023-03-04T06:11:17.883Z,81.03
2023-03-04T06:12:17.870Z,80.96
2023-03-04T06:13:17.855Z,82.21
2023-03-04T06:14:17.901Z,82.25
2023-03-04T06:15:17.833Z,82.73
2023-03-04T06:16:17.957Z,82.52
2023-03-04T06:17:17.825Z,82.31
2023-03-04T06:18:17.792Z,81.69
2023-03-04T06:19:17.777Z,81.90
2023-03-04T06:20:17.765Z,81.90
2023-03-04T06:21:17.751Z,81.79
2023-03-04T06:22:17.758Z,82.00
2023-03-04T06:23:17.722Z,81.48
2023-03-04T06:24:17.712Z,81.28
2023-03-04T06:25:17.701Z,81.38
2023-03-04T06:26:17.686Z,81.38
2023-03-04T06:27:17.675Z,81.38
2023-03-04T06:28:17.664Z,81.69
2023-03-04T06:29:17.646Z,82.11
2023-03-04T06:30:17.637Z,81.69
2023-03-04T06:31:17.711Z,81.48
2023-03-04T06:32:17.620Z,81.59
2023-03-04T06:33:17.618Z,81.97
2023-03-04T06:34:17.582Z,82.07
2023-03-04T06:35:17.567Z,81.34
2023-03-04T06:36:17.554Z,81.14
2023-03-04T06:37:17.553Z,80.78
2023-03-04T06:38:17.535Z,80.51
2023-03-04T06:39:17.521Z,80.72
2023-03-04T06:40:17.506Z,80.82
2023-03-04T06:41:17.487Z,81.07
2023-03-04T06:42:17.495Z,81.17
2023-03-04T06:43:17.460Z,81.59
2023-03-04T06:44:17.450Z,81.79
2023-03-04T06:45:17.434Z,81.65
2023-03-04T06:46:17.459Z,81.55
2023-03-04T06:47:17.406Z,81.65
2023-03-04T06:48:17.394Z,81.51
2023-03-04T06:49:17.404Z,80.51
2023-03-04T06:50:17.370Z,80.99
2023-03-04T06:51:17.354Z,80.99
2023-03-04T06:52:17.339Z,80.68
2023-03-04T06:53:17.323Z,80.47
2023-03-04T06:54:17.318Z,80.37
2023-03-04T06:55:17.302Z,79.85
2023-03-04T06:56:17.289Z,79.74
2023-03-04T06:57:17.271Z,79.13
2023-03-04T06:58:17.274Z,78.82
2023-03-04T06:59:17.245Z,78.88
2023-03-04T07:00:17.229Z,78.78
2023-03-04T07:01:17.298Z,78.57
2023-03-04T07:02:17.205Z,78.26
2023-03-04T07:03:17.191Z,78.22
2023-03-04T07:04:17.248Z,78.43
2023-03-04T07:05:17.188Z,78.22
2023-03-04T07:06:17.153Z,78.43
2023-03-04T07:07:17.147Z,77.29
2023-03-04T07:08:17.135Z,77.39
2023-03-04T07:09:17.112Z,77.91
2023-03-04T07:10:17.098Z,77.81
2023-03-04T07:11:17.089Z,78.12
2023-03-04T07:12:17.075Z,77.50
2023-03-04T07:13:17.066Z,77.50
2023-03-04T07:14:17.058Z,77.50
2023-03-04T07:15:17.037Z,77.56
2023-03-04T07:16:17.053Z,77.67
2023-03-04T07:17:17.020Z,77.46
2023-03-04T07:18:16.997Z,77.25
2023-03-04T07:19:16.984Z,77.01
2023-03-04T07:20:16.988Z,77.11
2023-03-04T07:21:16.986Z,77.22
2023-03-04T07:22:16.952Z,76.22
2023-03-04T07:23:16.937Z,76.42
2023-03-04T07:24:16.922Z,76.63
2023-03-04T07:25:16.909Z,76.84
2023-03-04T07:26:16.900Z,76.73
2023-03-04T07:27:16.894Z,76.12
2023-03-04T07:28:16.872Z,76.73
2023-03-04T07:29:16.861Z,76.73
2023-03-04T07:30:16.845Z,76.81
2023-03-04T07:31:16.870Z,76.81
2023-03-04T07:32:17.014Z,76.77
2023-03-04T07:33:16.806Z,76.67
2023-03-04T07:34:16.796Z,76.15
2023-03-04T07:35:16.976Z,75.84
2023-03-04T07:36:16.771Z,76.29
2023-03-04T07:37:16.779Z,76.50
2023-03-04T07:38:16.742Z,76.91
2023-03-04T07:39:16.732Z,77.25
2023-03-04T07:40:16.718Z,77.67
2023-03-04T07:41:16.704Z,77.36
2023-03-04T07:42:16.707Z,76.73
2023-03-04T07:43:16.680Z,77.42
2023-03-04T07:44:16.664Z,77.01
2023-03-04T07:45:16.653Z,76.29
2023-03-04T07:46:16.721Z,76.63
2023-03-04T07:47:16.642Z,76.73
2023-03-04T07:48:16.616Z,77.25
2023-03-04T07:49:16.618Z,77.42
2023-03-04T07:50:18.025Z,77.01
2023-03-04T07:51:16.584Z,76.91
2023-03-04T07:52:16.565Z,76.91
2023-03-04T07:53:16.576Z,76.98
2023-03-04T07:54:16.540Z,76.36
2023-03-04T07:55:16.531Z,75.94
2023-03-04T07:56:16.514Z,75.94
2023-03-04T07:57:16.500Z,76.98
2023-03-04T07:58:16.502Z,75.94
2023-03-04T07:59:16.487Z,76.36
2023-03-04T08:00:16.461Z,77.08
2023-03-04T08:01:16.458Z,77.28
2023-03-04T08:02:16.474Z,76.15
2023-03-04T08:03:16.424Z,76.22
2023-03-04T08:04:16.472Z,76.80
2023-03-04T08:05:16.397Z,75.77
2023-03-04T08:06:16.382Z,75.56
2023-03-04T08:07:16.374Z,75.04
2023-03-04T08:08:17.385Z,74.12
2023-03-04T08:09:16.375Z,74.53
2023-03-04T08:10:16.332Z,74.73
2023-03-04T08:11:16.324Z,74.43
2023-03-04T08:12:16.306Z,74.53
2023-03-04T08:13:16.294Z,74.43
2023-03-04T08:14:16.277Z,73.80
2023-03-04T08:15:16.274Z,74.43
2023-03-04T08:16:16.316Z,74.94
2023-03-04T08:17:16.250Z,74.63
2023-03-04T08:18:16.232Z,74.73
2023-03-04T08:19:16.246Z,74.49
2023-03-04T08:20:16.199Z,74.39
2023-03-04T08:21:16.196Z,73.77
2023-03-04T08:22:16.173Z,73.46
2023-03-04T08:23:16.160Z,73.18
2023-03-04T08:24:16.149Z,74.04
2023-03-04T08:25:16.160Z,75.29
2023-03-04T08:26:16.131Z,75.90
2023-03-04T08:27:16.111Z,75.39
2023-03-04T08:28:16.095Z,75.11
2023-03-04T08:29:16.096Z,75.90
2023-03-04T08:30:16.070Z,76.32
2023-03-04T08:31:16.199Z,76.08
2023-03-04T08:32:16.246Z,75.11
2023-03-04T08:33:16.031Z,74.70
2023-03-04T08:34:16.021Z,74.15
2023-03-04T08:35:16.004Z,73.84
2023-03-04T08:36:16.028Z,73.26
2023-03-04T08:37:15.979Z,74.12
2023-03-04T08:38:15.964Z,74.87
2023-03-04T08:39:15.954Z,74.87
2023-03-04T08:40:15.949Z,75.50
2023-03-04T08:41:15.949Z,75.21
2023-03-04T08:42:15.921Z,76.04
2023-03-04T08:43:15.903Z,76.25
2023-03-04T08:44:15.890Z,76.63
2023-03-04T08:45:15.882Z,75.70
2023-03-04T08:46:15.883Z,76.18
2023-03-04T08:47:15.850Z,75.77
2023-03-04T08:48:15.838Z,75.15
2023-03-04T08:49:15.828Z,75.94
2023-03-04T08:50:15.812Z,75.70
2023-03-04T08:51:15.795Z,73.95
2023-03-04T08:52:15.793Z,74.35
2023-03-04T08:53:15.771Z,73.22
2023-03-04T08:54:15.756Z,74.01
2023-03-04T08:55:15.743Z,73.43
2023-03-04T08:56:15.731Z,73.80
2023-03-04T08:57:15.752Z,73.60
2023-03-04T08:58:15.704Z,72.77
2023-03-04T08:59:15.701Z,72.88
2023-03-04T09:00:15.680Z,72.98
2023-03-04T09:01:15.671Z,72.15
2023-03-04T09:02:15.656Z,71.77
2023-03-04T09:03:15.683Z,72.57
2023-03-04T09:04:15.631Z,72.77
2023-03-04T09:05:15.621Z,72.64
2023-03-04T09:06:15.601Z,70.91
2023-03-04T09:07:15.603Z,71.56
2023-03-04T09:08:15.576Z,71.77
2023-03-04T09:09:15.562Z,72.25
2023-03-04T09:10:15.547Z,72.39
2023-03-04T09:11:15.543Z,72.15
2023-03-04T09:12:15.521Z,71.95
2023-03-04T09:13:15.568Z,72.05
2023-03-04T09:14:15.502Z,71.02
2023-03-04T09:15:15.500Z,71.67
2023-03-04T09:16:15.518Z,71.88
2023-03-04T09:17:15.459Z,71.88
2023-03-04T09:18:15.444Z,72.60
2023-03-04T09:19:15.432Z,73.01
2023-03-04T09:20:15.421Z,72.15
2023-03-04T09:21:15.412Z,71.64
2023-03-04T09:22:15.396Z,71.22
2023-03-04T09:23:15.383Z,71.12
2023-03-04T09:24:15.365Z,71.33
2023-03-04T09:25:15.378Z,71.33
2023-03-04T09:26:15.340Z,71.33
2023-03-04T09:27:15.329Z,71.53
2023-03-04T09:28:15.317Z,71.74
2023-03-04T09:29:15.327Z,71.02
2023-03-04T09:30:15.290Z,71.43
2023-03-04T09:31:15.334Z,70.91
2023-03-04T09:32:15.322Z,71.74
2023-03-04T09:33:15.254Z,70.98
2023-03-04T09:34:15.236Z,70.26
2023-03-04T09:35:15.222Z,70.26
2023-03-04T09:36:15.254Z,70.26
2023-03-04T09:37:15.195Z,70.26
2023-03-04T09:38:15.182Z,69.92
2023-03-04T09:39:15.175Z,69.72
2023-03-04T09:40:15.156Z,69.64
2023-03-04T09:41:15.146Z,69.75
2023-03-04T09:42:15.132Z,69.82
2023-03-04T09:43:15.118Z,69.51
2023-03-04T09:44:15.111Z,69.54
2023-03-04T09:45:15.135Z,69.40
2023-03-04T09:46:15.127Z,69.30
2023-03-04T09:47:15.069Z,69.13
2023-03-04T09:48:15.051Z,69.72
2023-03-04T09:49:15.054Z,69.20
2023-03-04T09:50:15.040Z,69.75
2023-03-04T09:51:15.014Z,69.82
2023-03-04T09:52:14.999Z,69.64
2023-03-04T09:53:14.988Z,69.95
2023-03-04T09:54:14.973Z,69.95
2023-03-04T09:55:14.967Z,69.85
2023-03-04T09:56:14.950Z,69.54
2023-03-04T09:57:14.937Z,69.98
2023-03-04T09:58:14.919Z,70.09
2023-03-04T09:59:14.911Z,70.19
2023-03-04T10:00:14.960Z,69.85
2023-03-04T10:01:14.904Z,69.64
2023-03-04T10:02:14.865Z,69.54
2023-03-04T10:03:14.877Z,69.34
2023-03-04T10:04:14.843Z,69.40
2023-03-04T10:05:14.827Z,69.09
2023-03-04T10:06:14.813Z,68.89
2023-03-04T10:07:14.801Z,68.79
2023-03-04T10:08:14.785Z,68.45
2023-03-04T10:09:14.774Z,68.58
2023-03-04T10:10:14.787Z,68.89
2023-03-04T10:11:14.747Z,69.30
2023-03-04T10:12:14.733Z,69.00
2023-03-04T10:13:14.721Z,68.45
2023-03-04T10:14:14.707Z,68.34
2023-03-04T10:15:14.697Z,68.45
2023-03-04T10:16:14.730Z,68.37
2023-03-04T10:17:14.697Z,68.68
2023-03-04T10:18:14.657Z,68.76
2023-03-04T10:19:14.642Z,68.55
2023-03-04T10:20:14.641Z,68.03
2023-03-04T10:21:14.616Z,67.93
2023-03-04T10:22:14.602Z,68.48
2023-03-04T10:24:14.646Z,68.24
2023-03-04T10:25:14.563Z,68.45
2023-03-04T10:26:14.549Z,68.24
2023-03-04T10:27:14.537Z,68.24
2023-03-04T10:28:14.523Z,68.24
2023-03-04T10:29:14.508Z,68.65
2023-03-04T10:30:14.493Z,68.76
2023-03-04T10:31:14.541Z,68.65
2023-03-04T10:32:14.524Z,68.45
2023-03-04T10:33:14.484Z,68.34
2023-03-04T10:34:14.443Z,68.03
2023-03-04T10:35:14.427Z,68.34
2023-03-04T10:36:14.411Z,68.45
2023-03-04T10:37:14.398Z,68.10
2023-03-04T10:38:14.386Z,67.70
2023-03-04T10:39:14.373Z,67.49
2023-03-04T10:40:14.362Z,67.49
2023-03-04T10:41:14.344Z,67.31
2023-03-04T10:42:14.517Z,67.41
2023-03-04T10:43:14.318Z,67.28
2023-03-04T10:44:14.310Z,67.10
2023-03-04T10:45:14.292Z,67.73
2023-03-04T10:46:14.278Z,67.93
2023-03-04T10:47:14.280Z,67.83
2023-03-04T10:48:14.253Z,67.38
2023-03-04T10:49:14.262Z,67.38
2023-03-04T10:50:14.223Z,67.59
2023-03-04T10:51:14.213Z,68.13
2023-03-04T10:52:14.199Z,68.00
2023-03-04T10:53:14.185Z,67.49
2023-03-04T10:54:14.170Z,67.49
2023-03-04T10:55:14.158Z,67.35
2023-03-04T10:56:14.148Z,66.83
2023-03-04T10:57:14.134Z,66.43
2023-03-04T10:58:14.120Z,66.40
2023-03-04T10:59:14.107Z,66.60
2023-03-04T11:00:14.092Z,65.95
2023-03-04T11:01:14.148Z,65.75
2023-03-04T11:02:14.067Z,65.57
2023-03-04T11:03:14.055Z,66.16
2023-03-04T11:04:14.078Z,65.88
2023-03-04T11:05:14.058Z,65.98
2023-03-04T11:06:14.014Z,65.78
2023-03-04T11:07:14.003Z,66.08
2023-03-04T11:08:13.992Z,65.64
2023-03-04T11:09:13.978Z,65.64
2023-03-04T11:10:13.962Z,65.33
2023-03-04T11:11:13.951Z,65.03
2023-03-04T11:12:13.942Z,65.44
2023-03-04T11:13:13.923Z,65.03
2023-03-04T11:14:13.912Z,65.75
2023-03-04T11:15:13.895Z,66.29
2023-03-04T11:16:13.930Z,66.50
2023-03-04T11:17:13.868Z,66.60
2023-03-04T11:18:13.864Z,66.19
2023-03-04T11:19:13.843Z,66.70
2023-03-04T11:20:13.834Z,66.26
2023-03-04T11:21:13.835Z,66.08
2023-03-04T11:22:13.802Z,66.40
2023-03-04T11:23:13.788Z,67.15
2023-03-04T11:24:27.629Z,67.32
2023-03-04T11:25:13.760Z,66.50
2023-03-04T11:26:13.745Z,66.26
2023-03-04T11:27:13.734Z,65.92
2023-03-04T11:28:13.723Z,64.86
2023-03-04T11:29:13.706Z,64.97
2023-03-04T11:30:13.692Z,64.82
2023-03-04T11:31:13.678Z,65.10
2023-03-04T11:32:13.858Z,64.76
2023-03-04T11:33:13.650Z,63.81
2023-03-04T11:34:13.792Z,63.29
2023-03-04T11:35:13.628Z,63.39
2023-03-04T11:36:13.619Z,64.79
2023-03-04T11:37:13.633Z,64.63
2023-03-04T11:38:13.598Z,64.22
2023-03-04T11:39:13.587Z,63.83
2023-03-04T11:40:13.576Z,64.45
2023-03-04T11:41:13.563Z,64.52
2023-03-04T11:42:13.553Z,64.08
2023-03-04T11:43:13.541Z,63.70
2023-03-04T11:44:13.531Z,64.58
2023-03-04T11:45:27.938Z,65.23
2023-03-04T11:46:13.561Z,65.41
2023-03-04T11:47:13.497Z,65.30
2023-03-04T11:48:13.501Z,65.17
2023-03-04T11:49:13.483Z,65.03
2023-03-04T11:50:13.467Z,65.75
2023-03-04T11:51:13.455Z,65.72
2023-03-04T11:52:13.433Z,64.76
2023-03-04T11:53:13.444Z,64.86
2023-03-04T11:54:13.414Z,65.00
2023-03-04T11:55:13.403Z,65.13
2023-03-04T11:56:13.379Z,66.80
2023-03-04T11:57:13.365Z,66.91
2023-03-04T11:58:13.353Z,66.50
2023-03-04T11:59:13.339Z,66.74
2023-03-04T12:00:13.326Z,66.91
2023-03-04T12:01:13.313Z,67.22
2023-03-04T12:02:13.305Z,66.80
2023-03-04T12:03:13.293Z,66.50
2023-03-04T12:04:13.369Z,66.83
2023-03-04T12:05:13.266Z,67.46
2023-03-04T12:06:13.247Z,67.46
2023-03-04T12:07:13.235Z,67.08
2023-03-04T12:08:13.222Z,66.40
2023-03-04T12:09:13.231Z,66.50
2023-03-04T12:10:13.194Z,66.80
2023-03-04T12:11:13.180Z,66.26
2023-03-04T12:12:13.166Z,66.05
2023-03-04T12:13:13.153Z,66.60
2023-03-04T12:14:13.151Z,66.80
2023-03-04T12:15:13.132Z,67.01
2023-03-04T12:16:13.360Z,66.47
2023-03-04T12:17:13.105Z,66.36
2023-03-04T12:18:13.087Z,66.36
2023-03-04T12:19:13.078Z,65.61
2023-03-04T12:20:13.058Z,65.82
2023-03-04T12:21:13.046Z,65.72
2023-03-04T12:22:13.035Z,65.82
2023-03-04T12:23:13.021Z,65.58
2023-03-04T12:24:13.012Z,65.04
2023-03-04T12:25:13.017Z,64.19
2023-03-04T12:26:12.982Z,63.90
2023-03-04T12:27:12.976Z,64.55
2023-03-04T12:28:12.955Z,65.30
2023-03-04T12:29:12.942Z,65.41
2023-03-04T12:30:12.926Z,65.48
2023-03-04T12:31:12.981Z,64.97
2023-03-04T12:32:12.961Z,65.20
2023-03-04T12:33:13.016Z,66.02
2023-03-04T12:34:12.877Z,65.92
2023-03-04T12:35:12.860Z,65.17
2023-03-04T12:36:12.846Z,65.14
2023-03-04T12:37:12.836Z,64.94
2023-03-04T12:38:12.818Z,65.38
2023-03-04T12:39:12.801Z,65.04
2023-03-04T12:40:12.792Z,64.76
2023-03-04T12:41:12.799Z,65.72
2023-03-04T12:42:12.764Z,66.77
2023-03-04T12:43:12.749Z,66.77
2023-03-04T12:44:12.745Z,67.19
2023-03-04T12:45:12.724Z,67.49
2023-03-04T12:46:12.780Z,67.16
2023-03-04T12:47:12.695Z,65.79
2023-03-04T12:48:12.681Z,64.91
2023-03-04T12:49:12.667Z,64.08
2023-03-04T12:50:12.656Z,63.75
2023-03-04T12:51:12.650Z,64.08
2023-03-04T12:52:12.627Z,65.04
2023-03-04T12:53:12.613Z,64.80
2023-03-04T12:54:12.601Z,64.26